Time;durP1;ratioP1;P1;durP2;ratioP2;P2;SDS_P1;SDS_P2;PMS_P1;PMS_P2;Temp;Humidity;BMP_temperature;BMP_pressure;BME280_temperature;BME280_humidity;BME280_pressure;Samples;Min_cycle;Max_cycle;Signal;HPM_P1;HPM_P2
2022/10/11 00:03:16;;;;;;;2.40;1.50;;;;;;;10.20;85.87;102011.38;6206307;28;20823;-71
2022/10/11 00:06:42;;;;;;;1.97;1.40;;;;;;;10.38;85.48;102022.72;6202003;28;20476;-70
2022/10/11 00:10:03;;;;;;;4.00;1.60;;;;;;;10.30;85.49;102020.56;6202340;28;20225;-71
2022/10/11 00:13:24;;;;;;;2.93;2.40;;;;;;;10.29;85.72;102024.22;6207078;28;20316;-72
2022/10/11 00:16:45;;;;;;;2.77;1.30;;;;;;;10.19;86.25;102028.53;6205165;28;20345;-71
2022/10/11 00:20:07;;;;;;;6.73;2.70;;;;;;;10.19;85.98;102030.34;6202277;28;20233;-70
2022/10/11 00:23:29;;;;;;;5.33;2.30;;;;;;;10.23;85.63;102034.56;6210363;28;20907;-71
2022/10/11 00:26:50;;;;;;;10.40;2.57;;;;;;;10.11;85.89;102048.88;6194913;28;20233;-71
2022/10/11 00:30:12;;;;;;;1.93;1.13;;;;;;;10.16;85.45;102042.19;6203156;28;20600;-72
2022/10/11 00:33:33;;;;;;;3.80;1.47;;;;;;;10.06;85.73;102051.84;6203489;28;20233;-72
2022/10/11 00:36:54;;;;;;;1.17;1.17;;;;;;;9.99;86.00;102058.59;6206646;28;20237;-71
2022/10/11 00:40:20;;;;;;;3.53;1.80;;;;;;;10.02;85.85;102054.84;6204798;28;20275;-71
2022/10/11 00:43:41;;;;;;;1.93;1.60;;;;;;;9.98;86.12;102056.88;6187959;28;20524;-71
2022/10/11 00:47:05;;;;;;;2.83;1.07;;;;;;;9.87;86.72;102064.81;6197112;28;20622;-71
2022/10/11 00:50:30;;;;;;;6.10;2.53;;;;;;;9.86;86.49;102062.22;6195675;28;20228;-72
2022/10/11 00:53:52;;;;;;;6.43;2.20;;;;;;;9.79;86.71;102069.84;6197911;28;20305;-71
2022/10/11 00:57:19;;;;;;;2.03;1.33;;;;;;;9.82;86.82;102072.34;6202732;28;20230;-71
2022/10/11 01:00:40;;;;;;;3.90;1.47;;;;;;;9.89;86.59;102068.28;6196029;28;20233;-71
2022/10/11 01:04:01;;;;;;;3.03;1.67;;;;;;;9.84;86.39;102073.13;6199174;28;20810;-71
2022/10/11 01:07:22;;;;;;;2.33;1.23;;;;;;;9.90;86.59;102075.41;6203137;28;20228;-71
2022/10/11 01:10:43;;;;;;;14.93;2.33;;;;;;;9.87;86.14;102064.81;6197959;28;20678;-71
2022/10/11 01:14:31;;;;;;;5.90;2.27;;;;;;;10.07;85.56;102072.44;6200802;28;20241;-71
2022/10/11 01:17:59;;;;;;;4.67;2.10;;;;;;;10.06;85.79;102078.78;6207109;28;20823;-72
2022/10/11 01:21:33;;;;;;;9.00;2.30;;;;;;;9.97;85.94;102078.56;6197023;28;20236;-71
2022/10/11 01:25:11;;;;;;;3.37;1.63;;;;;;;9.92;86.02;102075.28;6180340;28;20538;-71
2022/10/11 01:28:49;;;;;;;4.87;1.87;;;;;;;9.91;85.84;102079.81;6199779;28;20232;-71
2022/10/11 01:32:15;;;;;;;2.83;1.90;;;;;;;9.83;86.28;102084.84;6198845;28;20256;-72
2022/10/11 01:35:41;;;;;;;3.90;1.60;;;;;;;9.79;85.98;102077.06;6207238;28;20229;-71
2022/10/11 01:39:06;;;;;;;4.73;2.13;;;;;;;9.91;86.24;102087.88;6184864;28;20229;-72
2022/10/11 01:42:28;;;;;;;2.17;1.97;;;;;;;9.82;86.25;102096.59;6199642;28;20762;-72
2022/10/11 01:45:51;;;;;;;6.07;2.10;;;;;;;9.78;85.79;102092.38;6199618;28;20965;-71
2022/10/11 01:49:13;;;;;;;2.90;2.20;;;;;;;9.73;86.29;102099.88;6199773;28;20228;-71
2022/10/11 01:52:41;;;;;;;2.90;1.30;;;;;;;9.77;86.68;102101.41;6185444;28;20320;-71
2022/10/11 01:56:09;;;;;;;2.53;2.13;;;;;;;9.68;86.53;102102.00;6175982;28;20234;-71
2022/10/11 01:59:41;;;;;;;11.57;3.00;;;;;;;9.61;87.13;102101.56;6200625;28;20228;-71
2022/10/11 02:03:15;;;;;;;4.83;1.77;;;;;;;9.55;87.05;102114.56;6196993;28;20726;-72
2022/10/11 02:06:48;;;;;;;5.63;1.93;;;;;;;9.40;87.54;102119.09;6187963;28;20252;-71
2022/10/11 02:10:15;;;;;;;2.30;1.50;;;;;;;9.37;87.63;102108.50;6191169;28;20338;-72
2022/10/11 02:13:39;;;;;;;2.10;1.70;;;;;;;9.38;87.70;102112.09;6198768;28;20702;-72
2022/10/11 02:17:07;;;;;;;3.23;2.57;;;;;;;9.41;87.72;102111.88;6199169;28;20242;-71
2022/10/11 02:20:32;;;;;;;2.83;2.50;;;;;;;9.50;87.71;102117.53;6190861;28;20237;-71
2022/10/11 02:23:59;;;;;;;3.97;1.27;;;;;;;9.45;87.46;102121.50;6194662;28;20229;-71
2022/10/11 02:27:25;;;;;;;1.73;1.27;;;;;;;9.49;87.50;102118.47;6203554;28;20237;-71
2022/10/11 02:30:48;;;;;;;2.90;1.40;;;;;;;9.55;87.25;102122.63;6190668;28;20237;-72
2022/10/11 02:34:15;;;;;;;1.60;1.50;;;;;;;9.51;87.56;102132.72;6200366;28;20233;-72
2022/10/11 02:37:43;;;;;;;3.70;2.23;;;;;;;9.50;87.39;102130.13;6190366;28;20237;-72
2022/10/11 02:41:11;;;;;;;3.30;2.40;;;;;;;9.45;88.01;102132.28;6181865;28;20233;-72
2022/10/11 02:44:36;;;;;;;12.20;1.97;;;;;;;9.48;87.94;102138.31;6179237;28;20517;-72
2022/10/11 02:47:58;;;;;;;3.03;1.43;;;;;;;9.36;88.11;102135.53;6190233;28;20221;-71
2022/10/11 02:51:19;;;;;;;3.87;1.80;;;;;;;9.42;88.15;102138.69;6173109;28;20269;-71
2022/10/11 02:54:39;;;;;;;3.00;1.60;;;;;;;9.54;87.87;102143.28;6196874;28;20240;-71
2022/10/11 02:58:02;;;;;;;3.13;1.20;;;;;;;9.41;88.25;102139.66;6200029;28;20824;-71
2022/10/11 03:01:23;;;;;;;3.73;2.07;;;;;;;9.50;88.01;102139.06;6196248;28;20596;-71
2022/10/11 03:04:44;;;;;;;1.70;1.60;;;;;;;9.43;88.53;102147.63;6203289;28;20255;-71
2022/10/11 03:08:05;;;;;;;6.63;3.37;;;;;;;9.52;87.89;102147.91;6197983;28;20233;-71
2022/10/11 03:11:26;;;;;;;4.40;2.67;;;;;;;9.52;87.78;102145.22;6179224;28;20700;-71
2022/10/11 03:14:48;;;;;;;4.20;2.10;;;;;;;9.48;87.49;102162.53;6205807;28;20229;-71
2022/10/11 03:18:09;;;;;;;5.53;2.23;;;;;;;9.58;87.25;102166.34;6211996;28;20241;-71
2022/10/11 03:21:30;;;;;;;2.47;1.70;;;;;;;9.51;87.42;102167.69;6188697;28;20650;-72
2022/10/11 03:24:51;;;;;;;6.70;1.90;;;;;;;9.50;87.47;102174.06;6191975;28;20712;-71
2022/10/11 03:28:12;;;;;;;4.83;1.97;;;;;;;9.49;87.41;102174.16;6204320;28;20237;-71
2022/10/11 03:31:35;;;;;;;4.43;2.23;;;;;;;9.52;87.50;102177.53;6202327;28;20257;-71
2022/10/11 03:34:56;;;;;;;8.03;1.97;;;;;;;9.56;86.80;102181.75;6203498;28;20224;-71
2022/10/11 03:38:20;;;;;;;2.53;2.07;;;;;;;9.60;87.06;102190.47;6197671;28;20607;-72
2022/10/11 03:41:41;;;;;;;1.97;1.40;;;;;;;9.81;86.54;102212.47;6201087;28;20229;-72
2022/10/11 03:45:03;;;;;;;4.80;2.53;;;;;;;9.83;85.75;102214.13;6201705;28;20230;-71
2022/10/11 03:48:26;;;;;;;3.63;2.17;;;;;;;9.87;85.71;102214.78;6180544;28;20382;-71
2022/10/11 03:51:47;;;;;;;4.23;1.80;;;;;;;9.78;85.21;102223.47;6175561;28;20758;-71
2022/10/11 03:55:09;;;;;;;3.47;1.37;;;;;;;9.63;85.86;102218.09;6181708;28;20346;-72
2022/10/11 03:58:29;;;;;;;4.33;1.37;;;;;;;9.63;85.90;102218.09;6183649;28;20229;-72
2022/10/11 04:01:50;;;;;;;2.93;1.40;;;;;;;9.53;86.12;102219.63;6195443;28;20252;-72
2022/10/11 04:05:12;;;;;;;2.87;1.30;;;;;;;9.37;87.22;102218.84;6205039;28;20618;-72
2022/10/11 04:08:33;;;;;;;4.60;2.03;;;;;;;9.21;88.06;102220.78;6196860;28;20245;-71
2022/10/11 04:11:54;;;;;;;8.30;3.57;;;;;;;9.26;87.87;102223.19;6202059;28;20278;-71
2022/10/11 04:15:15;;;;;;;1.83;1.43;;;;;;;9.22;87.70;102225.19;6202165;28;20588;-71
2022/10/11 04:18:36;;;;;;;2.87;1.80;;;;;;;9.23;87.49;102235.00;6205060;28;20240;-72
2022/10/11 04:21:58;;;;;;;2.77;2.43;;;;;;;9.24;88.17;102234.03;6197158;28;20716;-71
2022/10/11 04:25:19;;;;;;;3.07;2.73;;;;;;;9.15;87.99;102236.41;6204790;28;20229;-71
2022/10/11 04:28:40;;;;;;;3.40;2.27;;;;;;;9.10;88.10;102241.19;6177932;28;20226;-71
2022/10/11 04:32:01;;;;;;;7.47;1.93;;;;;;;9.08;88.78;102240.44;6177804;28;20678;-71
2022/10/11 04:35:22;;;;;;;3.13;1.30;;;;;;;9.22;87.88;102248.56;6184453;28;20237;-71
2022/10/11 04:38:44;;;;;;;6.60;2.10;;;;;;;9.20;88.26;102243.25;6185131;28;20803;-72
2022/10/11 04:42:05;;;;;;;8.83;2.07;;;;;;;9.16;87.55;102254.28;6197978;28;20677;-71
2022/10/11 04:45:28;;;;;;;4.27;1.63;;;;;;;9.17;87.64;102254.22;6182138;28;20229;-71
2022/10/11 04:48:48;;;;;;;3.17;2.07;;;;;;;9.20;87.80;102253.16;6223381;28;20288;-72
2022/10/11 04:52:09;;;;;;;6.80;1.60;;;;;;;9.20;87.51;102259.38;6168033;28;20226;-71
2022/10/11 04:55:31;;;;;;;2.70;1.80;;;;;;;9.24;87.33;102260.94;6186504;28;20234;-72
2022/10/11 04:58:53;;;;;;;7.17;3.40;;;;;;;9.10;88.25;102260.03;6174280;28;20344;-72
2022/10/11 05:02:14;;;;;;;7.47;3.20;;;;;;;9.10;87.92;102274.34;6188452;28;20253;-71
2022/10/11 05:05:35;;;;;;;6.10;2.40;;;;;;;9.18;88.01;102282.00;6187736;28;20863;-70
2022/10/11 05:08:56;;;;;;;2.37;1.67;;;;;;;9.11;87.54;102288.69;6192896;28;20229;-72
2022/10/11 05:12:18;;;;;;;6.10;2.47;;;;;;;9.06;88.05;102288.06;6187668;28;20229;-71
2022/10/11 05:15:39;;;;;;;4.17;2.53;;;;;;;9.14;87.88;102291.16;6193626;28;20236;-71
2022/10/11 05:19:00;;;;;;;4.57;1.80;;;;;;;9.05;88.46;102297.13;6184773;28;21535;-71
2022/10/11 05:22:21;;;;;;;5.67;2.53;;;;;;;9.12;87.83;102295.78;6187894;28;20570;-71
2022/10/11 05:25:41;;;;;;;1.80;1.70;;;;;;;9.12;87.64;102295.78;6175548;28;20230;-70
2022/10/11 05:29:04;;;;;;;4.73;2.67;;;;;;;9.11;87.63;102304.81;6172662;28;20222;-72
2022/10/11 05:32:25;;;;;;;3.30;2.57;;;;;;;9.25;87.59;102313.78;6167799;28;20233;-72
2022/10/11 05:35:46;;;;;;;3.47;2.50;;;;;;;9.19;87.52;102314.16;6186162;28;20229;-71
2022/10/11 05:39:07;;;;;;;9.57;2.53;;;;;;;9.15;87.13;102319.81;6185135;28;20642;-71
2022/10/11 05:42:28;;;;;;;7.00;3.53;;;;;;;9.05;88.15;102321.34;6194315;28;20229;-71
2022/10/11 05:45:50;;;;;;;5.60;2.27;;;;;;;9.11;87.41;102331.72;6196044;28;20237;-72
2022/10/11 05:49:11;;;;;;;6.13;2.57;;;;;;;9.11;87.62;102335.28;6195146;28;20230;-71
2022/10/11 05:52:32;;;;;;;8.77;2.67;;;;;;;9.21;86.89;102338.28;6189251;28;20726;-71
2022/10/11 05:55:53;;;;;;;4.90;1.83;;;;;;;9.30;86.56;102349.38;6199607;28;20504;-72
2022/10/11 05:59:14;;;;;;;8.90;4.70;;;;;;;9.31;86.91;102342.16;6192280;28;20229;-71
2022/10/11 06:02:36;;;;;;;3.97;1.73;;;;;;;9.26;86.48;102349.66;6191936;28;20229;-71
2022/10/11 06:06:02;;;;;;;1.97;1.53;;;;;;;9.24;86.52;102348.88;6187479;28;20226;-72
2022/10/11 06:09:23;;;;;;;2.30;1.63;;;;;;;9.20;87.18;102353.56;6195157;28;20273;-71
2022/10/11 06:12:44;;;;;;;7.90;2.80;;;;;;;9.22;87.02;102365.09;6189213;28;20230;-72
2022/10/11 06:16:05;;;;;;;3.93;1.83;;;;;;;9.36;86.68;102375.06;6189425;28;20233;-71
2022/10/11 06:19:28;;;;;;;4.23;2.10;;;;;;;9.47;85.47;102372.59;6196365;28;20361;-71
2022/10/11 06:22:49;;;;;;;3.87;1.97;;;;;;;9.65;85.22;102371.47;6194786;28;20233;-71
2022/10/11 06:26:10;;;;;;;4.60;3.20;;;;;;;9.71;85.21;102370.22;6193033;28;20232;-71
2022/10/11 06:29:31;;;;;;;2.90;1.53;;;;;;;9.80;84.67;102375.03;6195867;28;20221;-71
2022/10/11 06:32:52;;;;;;;10.77;3.03;;;;;;;9.94;83.78;102377.75;6196622;28;20245;-71
2022/10/11 06:36:16;;;;;;;10.60;2.50;;;;;;;10.09;83.63;102382.19;6186031;28;20233;-72
2022/10/11 06:39:36;;;;;;;3.03;2.33;;;;;;;9.91;83.99;102388.72;6185859;28;20332;-71
2022/10/11 06:42:57;;;;;;;3.53;1.97;;;;;;;9.95;84.01;102395.66;6193411;28;20217;-71
2022/10/11 06:46:19;;;;;;;2.67;1.70;;;;;;;9.90;83.69;102387.84;6192445;28;20611;-72
2022/10/11 06:49:39;;;;;;;3.30;1.73;;;;;;;10.04;83.67;102390.53;6195008;28;20523;-71
2022/10/11 06:53:02;;;;;;;8.03;2.33;;;;;;;10.17;82.78;102396.94;6194953;28;20233;-72
2022/10/11 06:56:24;;;;;;;6.03;3.43;;;;;;;10.18;82.22;102401.34;6197352;28;20257;-70
2022/10/11 06:59:44;;;;;;;13.53;1.77;;;;;;;10.29;82.28;102398.84;6186164;28;20630;-71
2022/10/11 07:03:05;;;;;;;3.70;1.73;;;;;;;10.28;82.53;102399.81;6206022;28;20249;-70
2022/10/11 07:06:30;;;;;;;4.63;2.30;;;;;;;10.53;81.26;102409.91;6190540;28;20325;-71
2022/10/11 07:09:52;;;;;;;3.10;2.00;;;;;;;10.52;81.20;102408.16;6188572;28;20237;-71
2022/10/11 07:13:13;;;;;;;7.07;1.83;;;;;;;10.74;80.67;102421.16;6204878;28;20221;-71
2022/10/11 07:16:35;;;;;;;3.60;1.73;;;;;;;10.90;79.52;102422.75;6186664;28;21323;-72
2022/10/11 07:19:55;;;;;;;5.57;2.23;;;;;;;10.45;80.44;102423.03;6204267;28;20938;-71
2022/10/11 07:23:16;;;;;;;4.90;2.17;;;;;;;10.45;80.18;102425.72;6199643;28;20229;-72
2022/10/11 07:26:38;;;;;;;4.10;2.10;;;;;;;10.58;79.44;102431.16;6185450;28;20252;-71
2022/10/11 07:29:59;;;;;;;13.00;1.73;;;;;;;10.66;79.48;102426.19;6204419;28;20639;-69
2022/10/11 07:33:20;;;;;;;8.00;3.67;;;;;;;10.68;79.74;102427.78;6201573;28;20269;-71
2022/10/11 07:36:41;;;;;;;4.23;1.80;;;;;;;10.80;78.98;102434.25;6210246;28;20241;-71
2022/10/11 07:40:02;;;;;;;4.87;1.80;;;;;;;10.78;78.66;102433.47;6201214;28;20808;-76
2022/10/11 07:43:25;;;;;;;2.43;1.53;;;;;;;10.81;77.94;102435.94;6225063;28;20229;-69
2022/10/11 07:46:45;;;;;;;3.00;2.10;;;;;;;10.86;78.19;102426.63;6216441;28;20237;-70
2022/10/11 07:50:08;;;;;;;3.90;2.00;;;;;;;10.93;77.54;102441.41;6210516;28;20217;-70
2022/10/11 07:53:28;;;;;;;2.00;1.87;;;;;;;10.90;77.54;102438.94;6215592;28;20226;-70
2022/10/11 07:56:49;;;;;;;2.57;1.87;;;;;;;10.75;77.75;102445.31;6213287;28;20230;-72
2022/10/11 08:00:13;;;;;;;5.07;2.03;;;;;;;11.12;76.72;102452.75;6201241;28;20266;-73
2022/10/11 08:03:34;;;;;;;9.00;2.13;;;;;;;11.37;76.36;102456.53;6189366;28;20755;-69
2022/10/11 08:06:55;;;;;;;3.20;2.90;;;;;;;11.54;74.45;102458.94;6179109;28;20234;-72
2022/10/11 08:10:16;;;;;;;4.57;2.57;;;;;;;11.64;74.08;102474.44;6197977;28;20257;-72
2022/10/11 08:13:38;;;;;;;13.43;3.30;;;;;;;11.75;73.58;102465.63;6206410;28;20233;-72
2022/10/11 08:17:01;;;;;;;5.67;1.87;;;;;;;11.74;73.23;102472.03;6190600;28;20682;-72
2022/10/11 08:20:21;;;;;;;3.47;2.07;;;;;;;11.86;73.02;102469.34;6180105;28;20238;-74
2022/10/11 08:23:43;;;;;;;4.87;2.10;;;;;;;12.00;73.09;102473.78;6186554;28;20555;-72
2022/10/11 08:27:04;;;;;;;6.70;3.00;;;;;;;11.93;72.71;102473.34;6208975;28;20240;-73
2022/10/11 08:30:25;;;;;;;4.53;2.67;;;;;;;11.94;72.83;102479.63;6196234;28;20547;-72
2022/10/11 08:33:47;;;;;;;3.57;1.93;;;;;;;12.29;71.28;102474.44;6209128;28;20234;-72
2022/10/11 08:37:08;;;;;;;3.53;1.87;;;;;;;11.96;71.83;102483.06;6209847;28;20225;-73
2022/10/11 08:40:29;;;;;;;4.10;1.80;;;;;;;12.12;71.69;102486.44;6185812;28;20238;-72
2022/10/11 08:43:59;;;;;;;3.63;1.60;;;;;;;12.15;70.89;102477.25;6176199;28;20249;-71
2022/10/11 08:47:24;;;;;;;13.77;2.23;;;;;;;12.36;70.77;102473.94;6196943;28;20224;-73
2022/10/11 08:50:49;;;;;;;2.97;1.97;;;;;;;12.69;70.36;102474.22;6206170;28;20237;-71
2022/10/11 08:54:17;;;;;;;2.93;1.87;;;;;;;12.98;68.73;102482.03;6186776;28;20522;-72
2022/10/11 08:57:40;;;;;;;3.10;2.63;;;;;;;13.28;68.28;102486.13;6205761;28;20256;-72
2022/10/11 09:01:01;;;;;;;3.30;2.30;;;;;;;13.59;69.49;102484.66;6203283;28;20237;-74
2022/10/11 09:04:22;;;;;;;3.80;2.50;;;;;;;13.75;68.69;102476.25;6203281;28;20241;-72
2022/10/11 09:07:59;;;;;;;3.17;1.40;;;;;;;13.11;66.94;102491.03;6204049;28;20265;-72
2022/10/11 09:11:33;;;;;;;2.60;1.67;;;;;;;13.34;68.16;102496.50;6192523;28;20237;-72
2022/10/11 09:15:09;;;;;;;3.47;1.73;;;;;;;13.59;66.31;102496.38;6212313;28;20319;-72
2022/10/11 09:18:48;;;;;;;4.90;1.57;;;;;;;13.28;66.68;102493.38;6200693;28;20224;-73
2022/10/11 09:22:20;;;;;;;4.47;2.90;;;;;;;13.43;66.86;102492.25;6203945;28;20434;-72
2022/10/11 09:25:50;;;;;;;4.63;2.80;;;;;;;13.34;66.48;102488.38;6205116;28;20229;-73
2022/10/11 09:29:21;;;;;;;3.47;1.40;;;;;;;13.53;66.01;102486.00;6184150;28;20254;-72
2022/10/11 09:32:44;;;;;;;7.53;2.00;;;;;;;13.93;65.61;102489.25;6205889;28;20608;-72
2022/10/11 09:36:17;;;;;;;8.57;2.07;;;;;;;14.86;62.11;102488.16;6182906;28;20234;-72
2022/10/11 09:39:44;;;;;;;4.27;1.83;;;;;;;15.94;58.09;102483.56;6202907;28;20229;-72
2022/10/11 09:43:08;;;;;;;1.90;1.37;;;;;;;17.88;52.22;102488.66;6178512;28;20241;-72
2022/10/11 09:46:35;;;;;;;5.17;1.33;;;;;;;19.27;49.08;102488.72;6202073;28;20477;-73
2022/10/11 09:49:59;;;;;;;2.42;1.20;;;;;;;21.49;42.52;102487.97;6204583;28;20603;-74
2022/10/11 09:53:20;;;;;;;2.70;1.92;;;;;;;21.37;42.42;102487.44;6184698;28;20234;-73
2022/10/11 09:56:43;;;;;;;2.75;1.30;;;;;;;23.54;38.49;102482.72;6190446;28;20298;-72
2022/10/11 10:00:19;;;;;;;1.92;1.52;;;;;;;24.79;36.53;102494.06;6195015;28;20573;-73
2022/10/11 10:03:43;;;;;;;3.75;1.17;;;;;;;26.40;32.88;102492.59;6205237;28;20554;-72
2022/10/11 10:07:11;;;;;;;2.30;1.90;;;;;;;27.40;31.06;102481.97;6204453;28;20228;-74
2022/10/11 10:10:38;;;;;;;5.38;2.15;;;;;;;28.73;29.00;102485.53;6195740;28;20828;-73
2022/10/11 10:13:59;;;;;;;7.90;1.85;;;;;;;24.72;35.16;102495.84;6205407;28;20599;-73
2022/10/11 10:17:21;;;;;;;3.88;1.50;;;;;;;19.84;43.62;102502.84;6178593;28;20236;-73
2022/10/11 10:20:52;;;;;;;2.33;2.13;;;;;;;21.18;43.14;102506.06;6203631;28;20237;-73
2022/10/11 10:24:20;;;;;;;4.82;1.85;;;;;;;19.92;45.70;102508.41;6200418;28;20221;-73
2022/10/11 10:27:56;;;;;;;2.50;1.40;;;;;;;18.98;47.15;102514.31;6210802;28;20307;-74
2022/10/11 10:31:21;;;;;;;4.82;1.92;;;;;;;17.95;50.76;102506.19;6188368;28;20258;-74
2022/10/11 10:34:55;;;;;;;4.78;1.98;;;;;;;17.09;53.08;102516.91;6180302;28;20221;-73
2022/10/11 10:38:19;;;;;;;3.20;1.65;;;;;;;22.49;41.88;102509.72;6185459;28;20665;-73
2022/10/11 10:41:40;;;;;;;3.38;1.23;;;;;;;24.09;36.59;102504.56;6194139;28;20252;-73
2022/10/11 10:45:01;;;;;;;3.60;1.80;;;;;;;24.74;35.62;102508.41;6188600;28;20233;-73
2022/10/11 10:48:34;;;;;;;2.88;1.00;;;;;;;22.42;39.37;102525.19;6209422;28;20237;-73
2022/10/11 10:52:06;;;;;;;5.10;1.30;;;;;;;20.51;43.32;102509.59;6186480;28;20511;-73
2022/10/11 10:55:34;;;;;;;3.13;1.48;;;;;;;20.91;43.57;102514.47;6184695;28;20233;-73
2022/10/11 10:59:19;;;;;;;2.47;1.15;;;;;;;19.25;46.93;102512.63;6193013;28;20228;-73
2022/10/11 11:02:47;;;;;;;3.25;2.38;;;;;;;19.01;48.15;102519.50;6199202;28;20237;-72
2022/10/11 11:06:17;;;;;;;2.60;1.90;;;;;;;18.59;49.34;102506.41;6187617;28;20315;-72
2022/10/11 11:09:50;;;;;;;2.88;1.73;;;;;;;18.23;50.49;102510.78;6213917;28;20626;-73
2022/10/11 11:13:25;;;;;;;2.70;1.00;;;;;;;16.68;54.21;102512.47;6210903;28;20221;-73
2022/10/11 11:16:53;;;;;;;4.05;1.23;;;;;;;17.34;53.24;102521.88;6213080;28;20336;-73
2022/10/11 11:20:31;;;;;;;5.20;1.40;;;;;;;19.75;47.15;102522.09;6209711;28;20707;-72
2022/10/11 11:23:59;;;;;;;4.18;1.50;;;;;;;19.09;48.13;102519.59;6205211;28;20233;-72
2022/10/11 11:27:35;;;;;;;1.73;1.27;;;;;;;17.90;50.83;102523.00;6202243;28;20268;-73
2022/10/11 11:31:02;;;;;;;3.28;2.13;;;;;;;17.84;51.55;102519.97;6205254;28;20622;-72
2022/10/11 11:34:27;;;;;;;1.77;1.63;;;;;;;17.43;52.52;102537.41;6189097;28;20246;-73
2022/10/11 11:37:49;;;;;;;12.52;1.58;;;;;;;16.99;53.96;102525.06;6186175;28;20320;-73
2022/10/11 11:41:17;;;;;;;1.70;1.25;;;;;;;17.01;54.09;102539.41;6199834;28;20233;-72
2022/10/11 11:44:44;;;;;;;3.10;1.20;;;;;;;16.86;54.71;102524.44;6213251;28;20729;-73
2022/10/11 11:48:10;;;;;;;1.42;0.90;;;;;;;16.96;54.05;102530.78;6199474;28;20238;-72
2022/10/11 11:51:36;;;;;;;11.98;1.63;;;;;;;17.45;53.01;102532.69;6196270;28;20236;-72
2022/10/11 11:55:05;;;;;;;2.13;1.05;;;;;;;17.51;52.82;102526.69;6201103;28;20225;-73
2022/10/11 11:58:37;;;;;;;6.00;1.20;;;;;;;16.70;54.53;102522.22;6201770;28;20308;-73
2022/10/11 12:02:19;;;;;;;5.33;2.60;;;;;;;16.14;56.30;102526.28;6198469;28;20250;-73
2022/10/11 12:06:17;;;;;;;11.27;2.33;;;;;;;15.72;58.60;102525.34;6203896;28;20308;-73
2022/10/11 12:09:42;;;;;;;2.40;1.50;;;;;;;16.16;58.02;102534.28;6195435;28;20237;-70
2022/10/11 12:13:15;;;;;;;3.53;1.60;;;;;;;16.00;57.86;102532.00;6194200;28;20229;-70
2022/10/11 12:17:15;;;;;;;2.53;1.23;;;;;;;15.84;56.94;102524.31;6205955;28;20249;-71
2022/10/11 12:20:40;;;;;;;4.67;2.30;;;;;;;15.81;57.55;102532.69;6207395;28;20233;-71
2022/10/11 12:24:10;;;;;;;7.03;3.20;;;;;;;15.85;58.10;102527.88;6202870;28;20325;-71
2022/10/11 12:27:39;;;;;;;1.73;1.20;;;;;;;15.65;58.37;102529.56;6181666;28;20256;-71
2022/10/11 12:31:04;;;;;;;1.63;0.90;;;;;;;15.77;57.76;102531.25;6182707;28;20226;-71
2022/10/11 12:34:36;;;;;;;2.33;1.90;;;;;;;16.39;56.64;102519.56;6201013;28;20660;-71
2022/10/11 12:38:13;;;;;;;5.87;1.77;;;;;;;16.16;56.16;102523.41;6187861;28;20229;-71
2022/10/11 12:41:49;;;;;;;1.97;1.00;;;;;;;16.20;57.15;102527.59;6208518;28;20500;-71
2022/10/11 12:45:30;;;;;;;2.00;1.43;;;;;;;15.62;58.31;102518.09;6203151;28;20603;-71
2022/10/11 12:48:57;;;;;;;4.10;1.67;;;;;;;15.86;57.57;102507.84;6203060;28;20402;-71
2022/10/11 12:52:33;;;;;;;6.77;2.30;;;;;;;16.15;56.80;102511.66;6206244;28;20583;-69
2022/10/11 12:56:00;;;;;;;3.87;2.10;;;;;;;16.05;56.47;102515.28;6210455;28;20225;-71
2022/10/11 12:59:23;;;;;;;6.33;1.07;;;;;;;15.74;56.88;102509.75;6208363;28;20363;-71
2022/10/11 13:02:44;;;;;;;3.13;1.40;;;;;;;16.19;55.58;102512.28;6208398;28;20308;-71
2022/10/11 13:06:13;;;;;;;1.53;1.20;;;;;;;16.90;54.61;102512.25;6201299;28;20233;-71
2022/10/11 13:09:39;;;;;;;2.93;2.10;;;;;;;18.09;51.40;102511.19;6213367;28;20331;-71
2022/10/11 13:13:03;;;;;;;3.03;1.03;;;;;;;18.84;49.70;102505.75;6203071;28;20233;-71
2022/10/11 13:16:26;;;;;;;3.38;1.30;;;;;;;19.05;48.91;102511.84;6186045;28;20333;-70
2022/10/11 13:19:51;;;;;;;3.83;1.30;;;;;;;21.50;43.13;102506.19;6191845;28;20767;-72
2022/10/11 13:23:22;;;;;;;2.90;1.92;;;;;;;23.17;40.32;102496.31;6203350;28;20285;-72
2022/10/11 13:26:49;;;;;;;4.25;2.10;;;;;;;21.61;42.02;102505.84;6210062;28;20281;-71
2022/10/11 13:30:16;;;;;;;7.82;2.15;;;;;;;19.99;47.03;102500.44;6214289;28;20229;-72
2022/10/11 13:33:42;;;;;;;1.27;1.17;;;;;;;19.52;47.63;102494.34;6210212;28;20538;-71
2022/10/11 13:37:04;;;;;;;4.00;1.85;;;;;;;19.10;48.51;102496.72;6188842;28;20231;-72
2022/10/11 13:40:26;;;;;;;2.78;1.25;;;;;;;19.98;46.79;102495.97;6202975;28;20222;-71
2022/10/11 13:43:48;;;;;;;4.13;1.38;;;;;;;20.57;44.81;102492.50;6196119;28;20233;-71
2022/10/11 13:47:13;;;;;;;3.85;2.03;;;;;;;20.74;43.38;102488.84;6178383;28;21522;-71
2022/10/11 13:50:35;;;;;;;2.03;1.67;;;;;;;18.95;47.73;102492.75;6173485;28;20620;-69
2022/10/11 13:53:58;;;;;;;9.07;1.75;;;;;;;19.58;46.63;102490.13;6181459;28;20233;-71
2022/10/11 13:57:19;;;;;;;8.10;1.55;;;;;;;20.26;44.57;102489.38;6202751;28;20524;-69
2022/10/11 14:00:53;;;;;;;2.47;1.58;;;;;;;20.12;44.50;102487.19;6173300;28;20642;-69
2022/10/11 14:04:16;;;;;;;3.55;1.00;;;;;;;18.71;48.02;102489.69;6206064;28;20228;-69
2022/10/11 14:07:38;;;;;;;2.40;1.55;;;;;;;16.53;53.77;102497.47;6208643;28;20509;-68
2022/10/11 14:10:59;;;;;;;2.10;1.48;;;;;;;15.78;55.48;102485.88;6190397;28;20234;-69
2022/10/11 14:14:41;;;;;;;1.30;1.10;;;;;;;15.61;56.59;102494.59;6191606;28;21450;-69
2022/10/11 14:18:36;;;;;;;8.03;2.93;;;;;;;15.40;57.11;102486.34;6211190;28;20221;-69
2022/10/11 14:21:57;;;;;;;3.00;1.00;;;;;;;15.23;58.40;102493.19;6168676;28;20255;-69
2022/10/11 14:25:18;;;;;;;2.53;1.23;;;;;;;14.92;58.99;102493.09;6168859;28;21391;-69
2022/10/11 14:28:39;;;;;;;3.57;1.27;;;;;;;14.96;59.25;102500.00;6198690;28;20320;-70
2022/10/11 14:32:03;;;;;;;6.60;1.70;;;;;;;14.89;59.68;102487.94;6192443;28;20586;-70
2022/10/11 14:35:28;;;;;;;5.23;1.40;;;;;;;15.03;59.19;102490.38;6184532;28;20328;-70
2022/10/11 14:38:49;;;;;;;5.97;2.97;;;;;;;14.95;60.48;102499.16;6179127;28;20222;-71
2022/10/11 14:42:11;;;;;;;3.80;1.23;;;;;;;14.72;60.86;102504.72;6177946;28;20253;-70
2022/10/11 14:45:31;;;;;;;6.63;1.50;;;;;;;14.76;61.76;102509.78;6205484;28;20256;-70
2022/10/11 14:48:53;;;;;;;3.23;1.07;;;;;;;14.77;61.77;102502.50;6184010;28;20233;-71
2022/10/11 14:52:15;;;;;;;7.03;3.63;;;;;;;14.86;63.14;102507.19;6197836;28;20244;-68
2022/10/11 14:55:38;;;;;;;4.73;2.07;;;;;;;14.83;62.67;102511.00;6203764;28;20233;-68
2022/10/11 14:58:59;;;;;;;6.00;1.73;;;;;;;14.70;63.18;102503.97;6208023;28;20317;-69
2022/10/11 15:02:20;;;;;;;6.73;1.30;;;;;;;14.86;63.15;102507.19;6203752;28;20221;-69
2022/10/11 15:05:41;;;;;;;4.83;1.63;;;;;;;14.66;63.85;102508.78;6187245;28;20237;-69
2022/10/11 15:09:04;;;;;;;4.17;1.33;;;;;;;14.62;64.29;102511.88;6203937;28;20233;-70
2022/10/11 15:12:25;;;;;;;1.83;1.30;;;;;;;14.55;64.92;102508.78;6211163;28;20946;-69
2022/10/11 15:15:46;;;;;;;14.30;1.47;;;;;;;14.69;64.59;102508.53;6210839;28;20229;-69
2022/10/11 15:19:10;;;;;;;1.27;1.00;;;;;;;14.77;64.39;102508.78;6204805;28;20696;-70
2022/10/11 15:22:31;;;;;;;3.07;0.90;;;;;;;14.80;63.78;102505.84;6207361;28;20233;-69
2022/10/11 15:25:53;;;;;;;3.87;1.83;;;;;;;14.84;64.27;102515.44;6211442;28;20254;-68
2022/10/11 15:29:17;;;;;;;3.37;3.07;;;;;;;14.92;64.14;102506.69;6211138;28;20546;-70
2022/10/11 15:32:37;;;;;;;4.13;2.73;;;;;;;14.93;64.07;102506.56;6208767;28;20228;-68
2022/10/11 15:35:59;;;;;;;2.57;1.50;;;;;;;14.88;64.46;102505.19;6189854;28;20774;-68
2022/10/11 15:39:25;;;;;;;3.37;1.83;;;;;;;14.92;64.14;102504.84;6175545;28;20229;-68
2022/10/11 15:42:49;;;;;;;4.73;1.17;;;;;;;14.89;64.55;102512.38;6194612;28;20229;-69
2022/10/11 15:46:13;;;;;;;1.53;1.43;;;;;;;14.79;65.15;102514.94;6190950;28;20237;-69
2022/10/11 15:49:34;;;;;;;7.90;2.17;;;;;;;14.80;64.85;102519.41;6187954;28;20217;-68
2022/10/11 15:52:55;;;;;;;2.70;1.93;;;;;;;14.74;64.98;102511.75;6181344;28;20221;-69
2022/10/11 15:56:18;;;;;;;2.83;1.67;;;;;;;14.83;65.11;102515.59;6186932;28;20222;-69